• Join FlightAware (Why Join?)
  • Login
  • US Flag 
01:07AM EDT


 

Airport Tracker/Info


-or-


 

Live Flight TrackerFlight Track Log ✈ N80YZ ✈ 05-Oct-2013 ✈ KFRG - KOWD

Flight Track Log - Related Links

Times and Time Zones

All times are in EDT time to prevent confusion due to time zone crossing. See the N80YZ flight status page for this flight to view local times or setup timezone preferences in your user account.

Time Position Orientation Groundspeed Altitude Reporting Facility
EDT Latitude Longitude Course Direction KTS MPH feet Rate Location/Type
12:01PM 40.7500 -73.4167 360° North 112 129 700  Level New York TRACON
12:02PM 40.7833 -73.4167 360° North 115 132 1,800 900 Climbing New York TRACON
12:03PM 40.8167 -73.4167 360° North 114 131 2,600 780 Climbing New York TRACON
12:04PM 40.8333 -73.4000 37° Northeast 137 158 3,400 780 Climbing New York TRACON
12:05PM 40.8500 -73.3500 66° East 129 148 4,200 720 Climbing New York TRACON
12:06PM 40.8500 -73.3167 90° East 139 160 4,900 540 Climbing New York TRACON
12:07PM 40.8833 -73.3167 360° North 142 163 5,300 600 Climbing New York TRACON
12:08PM 40.9167 -73.2833 37° Northeast 127 146 6,100 600 Climbing New York TRACON
12:09PM 40.9500 -73.2667 21° North 136 157 6,600 420 Climbing New York TRACON
12:10PM 40.9833 -73.2500 21° North 135 155 7,000 180 Climbing New York TRACON
12:11PM 41.0167 -73.2167 37° Northeast 157 181 7,000  Level New York TRACON
12:12PM 41.0667 -73.1833 27° Northeast 164 189 7,000  Level New York TRACON
12:13PM 41.1167 -73.1500 27° Northeast 165 190 7,000  Level New York TRACON
12:14PM 41.1500 -73.1333 21° North 169 194 7,000  Level New York TRACON
12:15PM 41.1833 -73.0833 48° Northeast 174 200 7,000  Level New York TRACON
12:16PM 41.2167 -73.0500 37° Northeast 171 197 7,000  Level New York TRACON
12:18PM 41.2800 -72.9814 39° Northeast 171 197 7,000  Level Boston Center
12:19PM 41.3178 -72.9375 41° Northeast 173 199 7,000  Level Boston Center
12:20PM 41.3553 -72.8936 41° Northeast 173 199 7,000  Level Boston Center
12:21PM 41.3908 -72.8522 41° Northeast 171 197 7,000  Level Boston Center
12:22PM 41.4267 -72.8083 43° Northeast 170 196 7,000  Level Boston Center
12:23PM 41.4600 -72.7642 45° Northeast 168 193 7,000  Level Boston Center
12:24PM 41.4978 -72.7228 39° Northeast 169 194 7,000  Level Boston Center
12:25PM 41.5289 -72.6814 45° Northeast 170 196 7,000  Level Boston Center
12:26PM 41.5625 -72.6344 46° Northeast 170 196 7,000  Level Boston Center
12:27PM 41.5814 -72.5761 67° East 172 198 7,000  Level Boston Center
12:28PM 41.6000 -72.5206 66° East 174 200 7,000  Level Boston Center
12:29PM 41.6250 -72.4539 63° Northeast 173 199 7,000  Level Boston Center
12:30PM 41.6500 -72.3900 62° Northeast 172 198 7,000  Level Boston Center
12:31PM 41.6689 -72.3317 67° East 173 199 7,000  Level Boston Center
12:32PM 41.6897 -72.2733 64° Northeast 174 200 7,000  Level Boston Center
12:33PM 41.7083 -72.2147 67° East 173 199 7,000  Level Boston Center
12:34PM 41.7311 -72.1564 62° Northeast 175 201 7,000  Level Boston Center
12:35PM 41.7475 -72.1006 69° East 174 200 7,000 -120 Level Boston Center
12:36PM 41.7703 -72.0364 65° Northeast 177 204 6,800 -420 Descending Boston Center
12:37PM 41.7908 -71.9722 67° East 188 216 6,200 -600 Descending Boston Center
12:38PM 41.8136 -71.9025 66° East 191 220 5,600 -600 Descending Boston Center
12:39PM 41.8381 -71.8383 63° Northeast 189 217 5,000 -600 Descending Boston Center
12:40PM 41.8586 -71.7767 66° East 188 216 4,500 -600 Descending Boston Center
12:41PM 41.8769 -71.7153 68° East 185 213 3,900 -660 Descending Boston Center
12:42PM 41.9017 -71.6422 66° East 181 208 3,200 -300 Descending Boston Center
12:45PM 41.9500 -71.5167 63° Northeast 163 188 3,000 -120 Descending KA90
12:46PM 41.9833 -71.4667 48° Northeast 165 190 3,000  Level KA90
12:47PM 42.0167 -71.4167 48° Northeast 164 189 3,000  Level KA90
12:48PM 42.0333 -71.3833 56° Northeast 164 189 3,000  Level KA90
12:49PM 42.0500 -71.3167 71° East 149 171 3,100  Climbing KA90
12:50PM 42.0333 -71.2833 124° Southeast 158 182 3,000 -420 Descending KA90
12:51PM 42.0167 -71.2167 109° East 173 199 2,400 -540 Descending KA90
12:52PM 42.0333 -71.1667 66° East 163 188 2,000 -240 Descending KA90
12:53PM 42.0333 -71.1167 90° East 146 168 2,000  Level KA90
12:54PM 42.0833 -71.1000 14° North 146 168 2,000 -240 Level KA90
12:55PM 42.1167 -71.1333 323° Northwest 154 177 1,600 -420 Descending KA90
12:56PM 42.1500 -71.1500 340° North 158 182 1,200 -420 Descending KA90
12:58PM 42.1833 -71.1667 346° North  Level FlightAware Approximate
01:05PM 42.1905 -71.1729 346° North  Level Estimated